createdAt,value
2016-04-11T10:46:56.295Z,717.85
2016-04-11T10:47:09.545Z,717.85
2016-04-11T10:47:24.016Z,717.88
2016-04-11T10:47:38.016Z,717.94
2016-04-11T10:47:52.016Z,718.03
2016-04-11T10:48:06.032Z,718.06
2016-04-11T10:48:20.425Z,718.1
2016-04-11T10:48:37.316Z,718.04
2016-04-11T10:48:51.097Z,718.08
2016-04-11T10:49:05.160Z,718.13
2016-04-11T10:49:18.975Z,718.09
2016-04-11T10:49:32.866Z,718.12
2016-04-11T10:49:47.225Z,718.1
2016-04-11T10:50:01.100Z,718.04
2016-04-11T10:50:15.305Z,718.08
2016-04-11T10:50:29.118Z,718.1
2016-04-11T10:50:42.883Z,718.07
2016-04-11T10:50:56.993Z,718.11
2016-04-11T10:51:10.993Z,718.1
2016-04-11T10:51:38.808Z,718.1
2016-04-11T10:51:52.605Z,718.09
2016-04-11T10:52:06.902Z,718.1
2016-04-11T10:52:35.171Z,718.12
2016-04-11T10:52:49.311Z,718.15
2016-04-11T10:53:03.155Z,718.18
2016-04-11T10:53:17.111Z,718.16
2016-04-11T10:53:31.002Z,718.2
2016-04-11T10:53:44.986Z,718.26
2016-04-11T10:53:59.142Z,718.26
2016-04-11T10:54:12.879Z,718.23
2016-04-11T10:54:26.832Z,718.24
2016-04-11T10:54:40.566Z,718.21
2016-04-11T10:54:54.738Z,718.22
2016-04-11T10:55:08.613Z,718.26
2016-04-11T10:55:22.585Z,718.17
2016-04-11T10:55:36.601Z,718.22
2016-04-11T10:55:50.444Z,718.16
2016-04-11T10:56:04.163Z,718.18
2016-04-11T10:56:32.540Z,718.18
2016-04-11T10:56:46.524Z,718.12
2016-04-11T10:57:00.384Z,718.19
2016-04-11T10:57:14.216Z,718.23
2016-04-11T10:57:28.200Z,718.2
2016-04-11T10:57:42.310Z,718.23
2016-04-11T10:57:56.419Z,718.23
2016-04-11T10:58:10.247Z,718.18
2016-04-11T10:58:24.734Z,718.22
2016-04-11T10:58:38.718Z,718.26
2016-04-11T10:58:52.827Z,718.26
2016-04-11T10:59:06.734Z,718.29
2016-04-11T10:59:20.643Z,718.26
2016-04-11T10:59:34.533Z,718.28
2016-04-11T10:59:48.393Z,718.27
2016-04-11T11:00:02.299Z,718.25
2016-04-11T11:00:44.504Z,718.33
2016-04-11T11:00:58.207Z,718.33
2016-04-11T11:01:12.273Z,718.37
2016-04-11T11:01:25.976Z,718.38
2016-04-11T11:01:39.835Z,718.38
2016-04-11T11:01:53.710Z,718.39
2016-04-11T11:02:06.867Z,718.39
2016-04-11T11:02:20.494Z,718.42
2016-04-11T11:02:34.322Z,718.41
2016-04-11T11:02:47.869Z,718.33
2016-04-11T11:03:02.212Z,718.35
2016-04-11T11:03:15.966Z,718.31
2016-04-11T11:03:30.201Z,718.31
2016-04-11T11:03:44.029Z,718.34
2016-04-11T11:03:57.951Z,718.34
2016-04-11T11:04:11.907Z,718.32
2016-04-11T11:04:25.688Z,718.28
2016-04-11T11:04:47.844Z,718.23
2016-04-11T11:05:01.594Z,718.25
2016-04-11T11:05:15.284Z,718.25
2016-04-11T11:05:43.268Z,718.19
2016-04-11T11:05:57.268Z,718.23
2016-04-11T11:06:11.206Z,718.28
2016-04-11T11:06:24.911Z,718.23
2016-04-11T11:07:07.067Z,718.28
2016-04-11T11:07:21.554Z,718.3
2016-04-11T11:07:35.523Z,718.25
2016-04-11T11:07:49.398Z,718.24
2016-04-11T11:08:03.195Z,718.24
2016-04-11T11:08:16.947Z,718.25
2016-04-11T11:08:30.900Z,718.24
2016-04-11T11:08:44.853Z,718.29
2016-04-11T11:08:59.244Z,718.28
2016-04-11T11:09:12.982Z,718.23
2016-04-11T11:09:26.857Z,718.28
2016-04-11T11:09:40.857Z,718.3
2016-04-11T11:09:54.467Z,718.27
2016-04-11T11:10:08.592Z,718.19
2016-04-11T11:10:37.220Z,718.22
2016-04-11T11:10:51.079Z,718.16
2016-04-11T11:11:04.157Z,718.2
2016-04-11T11:11:18.706Z,718.2
2016-04-11T11:11:32.862Z,718.17
2016-04-11T11:11:47.034Z,718.2
2016-04-11T11:12:03.737Z,718.17
2016-04-11T11:12:17.724Z,718.21
2016-04-11T11:12:31.755Z,718.06
2016-04-11T11:12:45.974Z,718.01
2016-04-11T11:12:59.614Z,718.17
2016-04-11T11:13:13.290Z,718.19
2016-04-11T11:13:27.181Z,718.19
2016-04-11T11:13:41.228Z,718.16
2016-04-11T11:13:55.103Z,718.1
2016-04-11T11:14:08.962Z,717.94
2016-04-11T11:14:37.152Z,718.1
2016-04-11T11:14:50.527Z,718.17
2016-04-11T11:15:05.011Z,718.2
2016-04-11T11:15:18.873Z,718.13
2016-04-11T11:15:32.623Z,718.18
2016-04-11T11:15:46.436Z,718.17
2016-04-11T11:16:00.264Z,718.14
2016-04-11T11:16:14.344Z,718.11
2016-04-11T11:16:28.313Z,718.11
2016-04-11T11:16:45.172Z,718.11
2016-04-11T11:16:59.032Z,718.13
2016-04-11T11:17:13.067Z,718.15
2016-04-11T11:17:30.192Z,718.27
2016-04-11T11:17:44.067Z,718.23
2016-04-11T11:17:58.317Z,718.21
2016-04-11T11:18:12.756Z,718.17
2016-04-11T11:18:26.725Z,718.2
2016-04-11T11:18:40.584Z,718.13
2016-04-11T11:18:54.663Z,718.18
2016-04-11T11:19:08.366Z,718.17
2016-04-11T11:19:22.258Z,718.13
2016-04-11T11:19:50.399Z,718.03
2016-04-11T11:20:04.274Z,718.13
2016-04-11T11:20:21.168Z,718.1
2016-04-11T11:20:35.058Z,718.17
2016-04-11T11:20:48.761Z,718.2
2016-04-11T11:21:02.574Z,718.23
2016-04-11T11:21:16.233Z,718.16
2016-04-11T11:21:31.233Z,718.21
2016-04-11T11:21:45.186Z,718.16
2016-04-11T11:21:59.405Z,718.21
2016-04-11T11:22:14.063Z,718.2
2016-04-11T11:22:28.219Z,718.19
2016-04-11T11:22:45.001Z,718.23
2016-04-11T11:23:01.657Z,718.28
2016-04-11T11:23:15.660Z,718.3
2016-04-11T11:23:29.535Z,718.24
2016-04-11T11:23:44.176Z,718.19
2016-04-11T11:23:58.035Z,718.18
2016-04-11T11:24:11.832Z,718.27
2016-04-11T11:24:25.616Z,718.3
2016-04-11T11:24:39.647Z,718.27
2016-04-11T11:24:53.647Z,718.34
2016-04-11T11:25:07.460Z,718.28
2016-04-11T11:25:21.182Z,718.28
2016-04-11T11:25:34.947Z,718.32
2016-04-11T11:25:48.791Z,718.28
2016-04-11T11:26:09.135Z,718.2
2016-04-11T11:26:23.059Z,718.22
2016-04-11T11:26:43.012Z,718.17
2016-04-11T11:26:57.105Z,718.18
2016-04-11T11:27:10.996Z,718.23
2016-04-11T11:27:25.062Z,718.28
2016-04-11T11:27:38.968Z,718.32
2016-04-11T11:27:58.983Z,718.34
2016-04-11T11:28:12.940Z,718.25
2016-04-11T11:28:27.315Z,718.29
2016-04-11T11:28:41.143Z,718.26
2016-04-11T11:28:55.065Z,718.27
2016-04-11T11:29:09.596Z,718.29
2016-04-11T11:29:24.177Z,718.31
2016-04-11T11:29:38.083Z,718.29
2016-04-11T11:29:52.193Z,718.3
2016-04-11T11:30:05.958Z,718.34
2016-04-11T11:30:19.898Z,718.38
2016-04-11T11:30:33.710Z,718.36
2016-04-11T11:31:01.679Z,718.32
2016-04-11T11:31:15.651Z,718.32
2016-04-11T11:31:43.760Z,718.36
2016-04-11T11:31:57.823Z,718.38
2016-04-11T11:32:17.700Z,718.37
2016-04-11T11:32:45.543Z,718.35
2016-04-11T11:32:59.543Z,718.35
2016-04-11T11:33:14.109Z,718.33
2016-04-11T11:33:27.843Z,718.4
2016-04-11T11:33:41.578Z,718.33
2016-04-11T11:34:09.468Z,718.3
2016-04-11T11:34:23.236Z,718.27
2016-04-11T11:34:37.751Z,718.25
2016-04-11T11:34:51.533Z,718.2
2016-04-11T11:35:19.661Z,718.21
2016-04-11T11:35:33.520Z,718.13
2016-04-11T11:35:50.598Z,718.14
2016-04-11T11:36:04.770Z,718.13
2016-04-11T11:36:18.695Z,718.1
2016-04-11T11:36:32.617Z,718.12
2016-04-11T11:36:46.914Z,718.12
2016-04-11T11:37:03.711Z,718.12
2016-04-11T11:37:23.573Z,718.11
2016-04-11T11:37:37.182Z,718.08
2016-04-11T11:37:51.010Z,718.16
2016-04-11T11:38:05.057Z,718.19
2016-04-11T11:38:18.982Z,718.19
2016-04-11T11:38:32.810Z,718.2
2016-04-11T11:38:46.998Z,718.24
2016-04-11T11:39:00.092Z,718.25
2016-04-11T11:39:14.312Z,718.22
2016-04-11T11:39:28.125Z,718.26
2016-04-11T11:39:56.047Z,718.29
2016-04-11T11:40:09.844Z,718.28
2016-04-11T11:40:24.268Z,718.27
2016-04-11T11:40:38.190Z,718.3
2016-04-11T11:40:52.737Z,718.34
2016-04-11T11:41:06.581Z,718.34
2016-04-11T11:41:20.428Z,718.27
2016-04-11T11:41:34.271Z,718.28
2016-04-11T11:41:48.068Z,718.31
2016-04-11T11:42:16.133Z,718.28
2016-04-11T11:42:30.070Z,718.25
2016-04-11T11:42:44.227Z,718.28
2016-04-11T11:42:57.992Z,718.25
2016-04-11T11:43:11.023Z,718.23
2016-04-11T11:43:25.261Z,718.2
2016-04-11T11:43:39.089Z,718.2
2016-04-11T11:43:53.120Z,718.23
2016-04-11T11:44:06.698Z,718.21
2016-04-11T11:44:20.467Z,718.24
2016-04-11T11:44:37.623Z,718.19
2016-04-11T11:44:51.514Z,718.14
2016-04-11T11:45:05.373Z,718.14
2016-04-11T11:45:19.220Z,718.1
2016-04-11T11:45:33.439Z,718.07
2016-04-11T11:45:47.642Z,718
2016-04-11T11:46:01.517Z,718.02
2016-04-11T11:46:15.363Z,718
2016-04-11T11:46:29.472Z,718.02
2016-04-11T11:46:43.222Z,718.02
2016-04-11T11:46:57.019Z,718.06
2016-04-11T11:47:11.519Z,718.12
2016-04-11T11:47:25.366Z,718.07
2016-04-11T11:47:39.412Z,718.16
2016-04-11T11:47:53.491Z,718.2
2016-04-11T11:48:08.084Z,718.31
2016-04-11T11:48:22.025Z,718.33
2016-04-11T11:48:36.056Z,718.44
2016-04-11T11:48:49.978Z,718.65
2016-04-11T11:49:03.806Z,718.45
2016-04-11T11:49:18.355Z,718.48
2016-04-11T11:49:32.339Z,718.58
2016-04-11T11:49:46.902Z,718.43
2016-04-11T11:50:01.058Z,718.48
2016-04-11T11:50:15.202Z,718.61
2016-04-11T11:50:43.545Z,718.69
2016-04-11T11:50:57.452Z,718.58
2016-04-11T11:51:11.405Z,718.69
2016-04-11T11:51:28.813Z,718.59
2016-04-11T11:51:42.704Z,718.53
2016-04-11T11:51:56.719Z,718.71
2016-04-11T11:52:10.594Z,718.8
2016-04-11T11:52:24.473Z,718.79
2016-04-11T11:52:38.520Z,718.86
2016-04-11T11:52:52.520Z,718.74
2016-04-11T11:53:06.817Z,718.73
2016-04-11T11:53:21.022Z,718.75
2016-04-11T11:53:34.647Z,718.76
2016-04-11T11:53:48.475Z,718.75
2016-04-11T11:54:02.210Z,718.74
2016-04-11T11:54:16.447Z,718.67
2016-04-11T11:54:30.228Z,718.65
2016-04-11T11:54:47.260Z,718.59
2016-04-11T11:55:01.150Z,718.68
2016-04-11T11:55:15.168Z,718.62
2016-04-11T11:55:29.371Z,718.61
2016-04-11T11:55:43.277Z,718.69
2016-04-11T11:55:57.121Z,718.66
2016-04-11T11:56:11.183Z,718.68
2016-04-11T11:56:25.593Z,718.63
2016-04-11T11:56:39.327Z,718.64
2016-04-11T11:56:53.140Z,718.62
2016-04-11T11:57:38.830Z,718.58
2016-04-11T11:57:53.205Z,718.49
2016-04-11T11:58:06.955Z,718.45
2016-04-11T11:58:20.879Z,718.44
2016-04-11T11:58:34.723Z,718.44
2016-04-11T11:58:48.941Z,718.4
2016-04-11T11:59:03.020Z,718.39
2016-04-11T11:59:16.929Z,718.37
2016-04-11T11:59:30.726Z,718.35
2016-04-11T11:59:44.819Z,718.38
2016-04-11T12:00:26.587Z,718.42
2016-04-11T12:00:40.728Z,718.36
2016-04-11T12:00:54.978Z,718.31
2016-04-11T12:01:09.025Z,718.26
2016-04-11T12:01:23.232Z,718.3
2016-04-11T12:01:37.138Z,718.32
2016-04-11T12:01:50.950Z,718.32
2016-04-11T12:02:05.200Z,718.29
2016-04-11T12:02:19.124Z,718.2
2016-04-11T12:02:36.327Z,718.29
2016-04-11T12:02:49.640Z,718.23
2016-04-11T12:03:03.562Z,718.23
2016-04-11T12:03:17.314Z,718.16
2016-04-11T12:03:31.001Z,718.19
2016-04-11T12:03:44.986Z,718.24
2016-04-11T12:03:59.033Z,718.27
2016-04-11T12:04:13.001Z,718.28
2016-04-11T12:04:26.927Z,718.33
2016-04-11T12:04:41.443Z,718.26
2016-04-11T12:04:55.646Z,718.25
2016-04-11T12:05:09.537Z,718.18
2016-04-11T12:05:23.524Z,718.13
2016-04-11T12:05:37.321Z,718.1
2016-04-11T12:05:51.633Z,718.08
2016-04-11T12:06:05.446Z,718.02
2016-04-11T12:06:19.182Z,718.04
2016-04-11T12:06:34.010Z,718.01
2016-04-11T12:06:48.213Z,718.01
2016-04-11T12:07:02.213Z,718.01
2016-04-11T12:07:16.184Z,718.13
2016-04-11T12:07:30.153Z,718.22
2016-04-11T12:07:43.997Z,718.2
2016-04-11T12:07:58.044Z,718.21
2016-04-11T12:08:11.903Z,718.14
2016-04-11T12:08:25.704Z,718.14
2016-04-11T12:08:40.766Z,718.2
2016-04-11T12:08:55.329Z,718.24
2016-04-11T12:09:09.251Z,718.2
2016-04-11T12:09:26.580Z,718.12
2016-04-11T12:09:44.533Z,718.11
2016-04-11T12:09:58.392Z,718.11
2016-04-11T12:10:12.330Z,718.17
2016-04-11T12:10:26.287Z,718.09
2016-04-11T12:10:40.615Z,718.04
2016-04-11T12:10:54.443Z,718.03
2016-04-11T12:11:08.334Z,718.03
2016-04-11T12:11:22.414Z,718.04
2016-04-11T12:11:39.742Z,718.02
2016-04-11T12:11:53.883Z,718.13
2016-04-11T12:12:07.945Z,718.11
2016-04-11T12:12:21.761Z,718.16
2016-04-11T12:12:36.042Z,718.2
2016-04-11T12:12:50.042Z,718.2
2016-04-11T12:13:04.120Z,718.23
2016-04-11T12:13:18.076Z,718.22
2016-04-11T12:13:31.998Z,718.21
2016-04-11T12:13:46.217Z,718.21
2016-04-11T12:14:00.170Z,718.28
2016-04-11T12:14:14.735Z,718.26
2016-04-11T12:14:28.720Z,718.33
2016-04-11T12:14:42.798Z,718.3
2016-04-11T12:14:57.189Z,718.32
2016-04-11T12:15:11.423Z,718.36
2016-04-11T12:15:28.581Z,718.41
2016-04-11T12:15:42.597Z,717.98
2016-04-11T12:15:56.503Z,718.42
2016-04-11T12:16:10.441Z,718.23
2016-04-11T12:16:24.333Z,718.41
2016-04-11T12:16:38.036Z,718.06
2016-04-11T12:16:51.880Z,717.5
2016-04-11T12:17:05.708Z,718.03
2016-04-11T12:17:19.900Z,717.33
2016-04-11T12:17:34.572Z,717.35
2016-04-11T12:17:48.400Z,717.42
2016-04-11T12:18:02.368Z,717.44
2016-04-11T12:18:16.464Z,717.42
2016-04-11T12:18:30.324Z,717.42
2016-04-11T12:18:44.230Z,717.53
2016-04-11T12:18:58.120Z,718.22
2016-04-11T12:19:12.042Z,718.3
2016-04-11T12:19:25.248Z,718.02
2016-04-11T12:19:39.248Z,718.41
2016-04-11T12:19:53.264Z,718.42
2016-04-11T12:20:07.186Z,718.33
2016-04-11T12:20:21.188Z,718.36
2016-04-11T12:20:35.157Z,718.37
2016-04-11T12:20:49.579Z,718.35
2016-04-11T12:21:06.547Z,718.33
2016-04-11T12:21:20.457Z,718.33
2016-04-11T12:21:34.269Z,718.27
2016-04-11T12:21:48.113Z,718.27
2016-04-11T12:22:02.160Z,718.26
2016-04-11T12:22:15.975Z,718.22
2016-04-11T12:22:30.163Z,718.2
2016-04-11T12:23:12.256Z,718.2
2016-04-11T12:23:40.072Z,718.22
2016-04-11T12:24:36.277Z,718.1
2016-04-11T12:24:50.574Z,718
2016-04-11T12:25:04.668Z,717.87
2016-04-11T12:25:18.671Z,717.8
2016-04-11T12:25:32.624Z,717.68
2016-04-11T12:25:46.499Z,717.54
2016-04-11T12:26:00.374Z,717.43
2016-04-11T12:26:42.642Z,717.27
2016-04-11T12:26:56.705Z,717.31
2016-04-11T12:27:27.660Z,717.17
2016-04-11T12:27:41.691Z,717.23
2016-04-11T12:27:55.660Z,717.38
2016-04-11T12:28:09.723Z,717.2
2016-04-11T12:28:23.726Z,717.33
2016-04-11T12:28:36.960Z,717.44
2016-04-11T12:28:51.116Z,717.43
2016-04-11T12:29:05.194Z,717.46
2016-04-11T12:29:19.478Z,717.52
2016-04-11T12:29:33.681Z,717.62
2016-04-11T12:29:47.681Z,717.41
2016-04-11T12:30:04.665Z,717.29
2016-04-11T12:30:18.622Z,717.29
2016-04-11T12:30:33.044Z,717.4
2016-04-11T12:30:46.950Z,717.5
2016-04-11T12:31:00.982Z,717.52
2016-04-11T12:31:15.015Z,717.5
2016-04-11T12:31:28.312Z,717.5
2016-04-11T12:31:42.327Z,717.57
2016-04-11T12:31:56.374Z,717.62
2016-04-11T12:32:10.421Z,717.42
2016-04-11T12:32:38.283Z,717.41
2016-04-11T12:32:52.471Z,717.42
2016-04-11T12:33:06.612Z,717.45
2016-04-11T12:33:20.504Z,717.38
2016-04-11T12:33:34.504Z,717.33
2016-04-11T12:33:48.442Z,717.22
2016-04-11T12:34:02.364Z,717.19
2016-04-11T12:34:16.445Z,717.2
2016-04-11T12:34:30.460Z,717.3
2016-04-11T12:34:44.429Z,717.3
2016-04-11T12:34:58.851Z,717.27
2016-04-11T12:35:13.038Z,717.29
2016-04-11T12:35:30.307Z,717.19
2016-04-11T12:35:47.713Z,717.21
2016-04-11T12:36:01.495Z,717.2
2016-04-11T12:36:15.481Z,717.19
2016-04-11T12:36:29.403Z,717.23
2016-04-11T12:36:46.653Z,717.17
2016-04-11T12:37:00.793Z,717.05
2016-04-11T12:37:14.656Z,717.18
2016-04-11T12:37:31.765Z,717.17
2016-04-11T12:37:49.718Z,717.2
2016-04-11T12:38:03.843Z,717.22
2016-04-11T12:38:17.831Z,717.21
2016-04-11T12:38:31.784Z,717.2
2016-04-11T12:38:45.831Z,717.23
2016-04-11T12:38:59.721Z,717.22
2016-04-11T12:39:13.549Z,717.19
2016-04-11T12:39:27.709Z,717.21
2016-04-11T12:39:41.881Z,717.2
2016-04-11T12:39:55.302Z,717.17
2016-04-11T12:40:09.099Z,717.16
2016-04-11T12:40:22.962Z,717.18
2016-04-11T12:40:37.555Z,717.16
2016-04-11T12:40:51.712Z,717.09
2016-04-11T12:41:05.415Z,717.17
2016-04-11T12:41:19.354Z,717.17
2016-04-11T12:41:47.354Z,717.19
2016-04-11T12:42:00.917Z,717.23
2016-04-11T12:42:28.872Z,717.43
2016-04-11T12:42:45.559Z,717.41
2016-04-11T12:43:13.528Z,717.37
2016-04-11T12:43:30.687Z,717.38
2016-04-11T12:43:44.687Z,717.5
2016-04-11T12:43:58.766Z,717.44
2016-04-11T12:44:13.000Z,717.46
2016-04-11T12:44:27.175Z,717.4
2016-04-11T12:44:41.065Z,717.48
2016-04-11T12:45:08.956Z,717.39
2016-04-11T12:45:23.287Z,717.42
2016-04-11T12:45:37.084Z,717.4
2016-04-11T12:45:51.053Z,717.48
2016-04-11T12:46:05.053Z,717.46
2016-04-11T12:46:18.836Z,717.51
2016-04-11T12:46:32.133Z,717.52
2016-04-11T12:46:46.289Z,717.49
2016-04-11T12:47:00.102Z,717.54
2016-04-11T12:47:13.899Z,717.41
2016-04-11T12:47:42.136Z,717.49
2016-04-11T12:47:55.855Z,717.44
2016-04-11T12:48:10.167Z,717.38
2016-04-11T12:48:24.075Z,717.31
2016-04-11T12:48:37.872Z,717.34
2016-04-11T12:48:51.685Z,717.43
2016-04-11T12:49:05.450Z,717.44
2016-04-11T12:49:19.439Z,717.4
2016-04-11T12:49:33.267Z,717.28
2016-04-11T12:49:47.095Z,717.44
2016-04-11T12:50:01.111Z,717.28
2016-04-11T12:50:15.348Z,717.27
2016-04-11T12:50:29.020Z,717.34
2016-04-11T12:50:42.879Z,717.34
2016-04-11T12:50:59.864Z,717.32
2016-04-11T12:51:13.801Z,717.31
2016-04-11T12:51:27.616Z,717.36
2016-04-11T12:51:41.709Z,717.42
2016-04-11T12:51:55.475Z,717.38
2016-04-11T12:52:09.366Z,717.46
2016-04-11T12:52:23.259Z,717.42
2016-04-11T12:52:37.181Z,717.52
2016-04-11T12:52:51.197Z,717.51
2016-04-11T12:53:04.791Z,717.53
2016-04-11T12:53:18.574Z,717.5
2016-04-11T12:53:32.386Z,717.4
2016-04-11T12:53:46.277Z,717.42
2016-04-11T12:54:00.683Z,717.44
2016-04-11T12:54:14.702Z,717.34
2016-04-11T12:54:28.592Z,717.38
2016-04-11T12:54:42.874Z,717.29
2016-04-11T12:54:56.921Z,717.3
2016-04-11T12:55:13.764Z,717.26
2016-04-11T12:55:55.423Z,717.29
2016-04-11T12:56:09.407Z,717.33
2016-04-11T12:56:23.097Z,717.36
2016-04-11T12:56:36.941Z,717.48
2016-04-11T12:56:50.972Z,717.28
2016-04-11T12:57:47.038Z,717.46
2016-04-11T12:58:00.882Z,717.6
2016-04-11T12:58:14.821Z,717.61
2016-04-11T12:58:28.587Z,717.62
2016-04-11T12:58:42.462Z,717.69
2016-04-11T12:58:55.493Z,717.64
2016-04-11T12:59:09.681Z,717.61
2016-04-11T12:59:23.497Z,717.53
2016-04-11T12:59:37.356Z,717.39
2016-04-11T12:59:51.388Z,717.34
2016-04-11T13:00:05.278Z,717.24
2016-04-11T13:00:19.171Z,717.31
2016-04-11T13:00:33.358Z,717.37
2016-04-11T13:00:47.280Z,717.26
2016-04-11T13:01:01.265Z,717.2
2016-04-11T13:01:15.346Z,717.13
2016-04-11T13:01:29.096Z,717.25
2016-04-11T13:01:42.440Z,717.33
2016-04-11T13:01:56.346Z,717.11
2016-04-11T13:02:10.455Z,717.13
2016-04-11T13:02:24.363Z,717.13
2016-04-11T13:02:38.129Z,717.08
2016-04-11T13:02:52.020Z,717.1
2016-04-11T13:03:06.692Z,717.01
2016-04-11T13:03:20.429Z,717.04
2016-04-11T13:03:34.273Z,717.09
2016-04-11T13:03:47.320Z,717.14
2016-04-11T13:04:04.210Z,717.14
2016-04-11T13:04:18.338Z,717.13
2016-04-11T13:04:32.838Z,717.24
2016-04-11T13:04:46.823Z,717.27
2016-04-11T13:05:01.260Z,717.23
2016-04-11T13:05:15.215Z,717.26
2016-04-11T13:05:29.528Z,717.35
2016-04-11T13:05:43.903Z,717.39
2016-04-11T13:05:57.825Z,717.34
2016-04-11T13:06:11.434Z,717.32
2016-04-11T13:06:25.453Z,717.29
2016-04-11T13:06:39.578Z,717.35
2016-04-11T13:06:53.578Z,717.38
2016-04-11T13:07:07.578Z,717.4
2016-04-11T13:07:21.846Z,717.38
2016-04-11T13:07:35.065Z,717.38
2016-04-11T13:08:00.971Z,717.37
2016-04-11T13:08:15.614Z,717.31
2016-04-11T13:08:29.489Z,717.36
2016-04-11T13:08:43.458Z,717.33
2016-04-11T13:08:57.395Z,717.42
2016-04-11T13:09:11.520Z,717.4
2016-04-11T13:09:28.382Z,717.52
2016-04-11T13:09:42.398Z,717.57
2016-04-11T13:09:56.523Z,717.48
2016-04-11T13:10:10.820Z,717.32
2016-04-11T13:10:24.807Z,717.28
2016-04-11T13:10:38.760Z,717.17
2016-04-11T13:10:52.620Z,717.16
2016-04-11T13:11:06.776Z,717.2
2016-04-11T13:11:20.826Z,717.14
2016-04-11T13:11:40.810Z,717.17
2016-04-11T13:11:54.888Z,717.27
2016-04-11T13:12:09.045Z,717.34
2016-04-11T13:12:26.063Z,717.36
2016-04-11T13:12:40.095Z,717.24
2016-04-11T13:12:53.938Z,717.31
2016-04-11T13:13:08.001Z,717.29
2016-04-11T13:13:21.893Z,717.24
2016-04-11T13:13:35.659Z,717.22
2016-04-11T13:13:49.925Z,717.27
2016-04-11T13:14:03.940Z,717.3
2016-04-11T13:14:18.100Z,717.33
2016-04-11T13:14:32.756Z,717.42
2016-04-11T13:15:00.662Z,717.66
2016-04-11T13:15:14.789Z,717.7
2016-04-11T13:15:29.102Z,717.64
2016-04-11T13:15:43.055Z,717.47
2016-04-11T13:15:56.898Z,717.31
2016-04-11T13:16:10.930Z,717.15
2016-04-11T13:16:24.995Z,717.06
2016-04-11T13:16:39.120Z,717.05
2016-04-11T13:16:53.401Z,717.11
2016-04-11T13:17:07.276Z,716.98
2016-04-11T13:17:21.701Z,716.95
2016-04-11T13:17:35.686Z,717.08
2016-04-11T13:17:49.795Z,717.06
2016-04-11T13:18:03.686Z,717.1
2016-04-11T13:18:17.594Z,717.15
2016-04-11T13:18:31.422Z,717.12
2016-04-11T13:18:45.531Z,717.19
2016-04-11T13:18:59.813Z,717.2
2016-04-11T13:19:13.813Z,717.21
2016-04-11T13:19:27.769Z,717.2
2016-04-11T13:19:41.659Z,717.15
2016-04-11T13:19:55.909Z,717.09
2016-04-11T13:20:10.206Z,717.18
2016-04-11T13:20:24.709Z,717.22
2016-04-11T13:20:39.100Z,717.28
2016-04-11T13:20:53.381Z,717.29
2016-04-11T13:21:10.366Z,717.22
2016-04-11T13:21:24.180Z,717.13
2016-04-11T13:21:38.243Z,717.04
2016-04-11T13:21:52.227Z,717.05
2016-04-11T13:22:06.368Z,717.23
2016-04-11T13:22:20.511Z,717.28
2016-04-11T13:22:34.246Z,717.31
2016-04-11T13:22:48.074Z,717.38
2016-04-11T13:23:01.808Z,717.44
2016-04-11T13:23:15.483Z,717.55
2016-04-11T13:23:30.139Z,717.68
2016-04-11T13:23:43.936Z,717.74
2016-04-11T13:23:57.702Z,717.67
2016-04-11T13:24:11.592Z,717.69
2016-04-11T13:24:31.580Z,717.52
2016-04-11T13:24:45.470Z,717.51
2016-04-11T13:24:59.486Z,717.5
2016-04-11T13:25:41.504Z,717.35
2016-04-11T13:25:55.566Z,717.3
2016-04-11T13:26:09.410Z,717.32
2016-04-11T13:26:23.444Z,717.28
2016-04-11T13:26:37.225Z,717.28
2016-04-11T13:26:51.147Z,717.16
2016-04-11T13:27:05.585Z,717.14
2016-04-11T13:27:19.446Z,717.17
2016-04-11T13:28:00.462Z,717.07
2016-04-11T13:28:14.462Z,716.98
2016-04-11T13:28:31.605Z,716.97
2016-04-11T13:28:48.980Z,716.96
2016-04-11T13:29:03.496Z,717
2016-04-11T13:29:18.124Z,717.03
2016-04-11T13:29:32.249Z,717.09
2016-04-11T13:29:46.061Z,717.14
2016-04-11T13:30:00.124Z,717.16
2016-04-11T13:30:14.186Z,717.15
2016-04-11T13:30:56.090Z,717.34
2016-04-11T13:31:24.403Z,717.61
2016-04-11T13:31:38.466Z,717.64
2016-04-11T13:31:52.435Z,717.7
2016-04-11T13:32:05.638Z,717.59
2016-04-11T13:32:19.873Z,717.58
2016-04-11T13:32:33.873Z,717.53
2016-04-11T13:32:47.733Z,717.57
2016-04-11T13:33:01.498Z,717.54
2016-04-11T13:33:15.327Z,717.53
2016-04-11T13:33:28.936Z,717.44
2016-04-11T13:33:43.045Z,717.56
2016-04-11T13:33:56.952Z,717.6
2016-04-11T13:34:11.061Z,717.5
2016-04-11T13:34:25.156Z,717.52
2016-04-11T13:34:53.296Z,717.75
2016-04-11T13:35:07.062Z,717.56
2016-04-11T13:35:20.864Z,717.37
2016-04-11T13:35:34.724Z,717.31
2016-04-11T13:35:48.630Z,717.49
2016-04-11T13:36:02.599Z,717.59
2016-04-11T13:36:16.540Z,717.54
2016-04-11T13:36:30.555Z,717.51
2016-04-11T13:36:44.321Z,717.55
2016-04-11T13:36:58.711Z,717.45
2016-04-11T13:37:12.680Z,717.46
2016-04-11T13:37:26.434Z,717.4
2016-04-11T13:37:40.559Z,717.54
2016-04-11T13:37:54.371Z,717.58
2016-04-11T13:38:08.246Z,717.52
2016-04-11T13:38:22.670Z,717.46
2016-04-11T13:38:36.733Z,717.44
2016-04-11T13:38:50.764Z,717.22
2016-04-11T13:39:05.061Z,717.28
2016-04-11T13:39:19.064Z,717.39
2016-04-11T13:39:32.986Z,717.41
2016-04-11T13:39:46.689Z,717.48
2016-04-11T13:40:00.971Z,717.29
2016-04-11T13:40:15.033Z,717.3
2016-04-11T13:40:28.933Z,717.37
2016-04-11T13:40:42.776Z,717.44
2016-04-11T13:40:56.667Z,717.44
2016-04-11T13:41:10.589Z,717.35
2016-04-11T13:41:24.832Z,717.24
2016-04-11T13:41:39.035Z,717.18
2016-04-11T13:41:53.223Z,717.16
2016-04-11T13:42:07.051Z,717.08
2016-04-11T13:42:21.137Z,717.13
2016-04-11T13:42:34.903Z,717.13
2016-04-11T13:42:48.903Z,717.13
2016-04-11T13:43:02.622Z,717.1
2016-04-11T13:43:19.333Z,717.12
2016-04-11T13:43:34.036Z,717.13
2016-04-11T13:43:48.208Z,717.09
2016-04-11T13:44:02.301Z,717.13
2016-04-11T13:44:15.982Z,717.01
2016-04-11T13:44:29.904Z,717.08
2016-04-11T13:44:44.123Z,716.97
2016-04-11T13:44:58.389Z,717.04
2016-04-11T13:45:26.425Z,717.22
2016-04-11T13:45:40.487Z,717.14
2016-04-11T13:45:54.534Z,717.08
2016-04-11T13:46:11.409Z,717.16
2016-04-11T13:46:25.227Z,717.14
2016-04-11T13:46:39.180Z,717.09
2016-04-11T13:46:53.383Z,717.04
2016-04-11T13:47:07.617Z,717.12
2016-04-11T13:47:21.575Z,717.2
2016-04-11T13:47:49.544Z,717.32
2016-04-11T13:48:03.372Z,717.32
2016-04-11T13:48:17.221Z,717.36
2016-04-11T13:48:31.221Z,717.55
2016-04-11T13:48:44.909Z,717.46
2016-04-11T13:49:12.862Z,717.47
2016-04-11T13:49:30.039Z,717.42
2016-04-11T13:49:44.226Z,717.12
2016-04-11T13:49:57.945Z,717.07
2016-04-11T13:50:12.054Z,716.97
2016-04-11T13:50:26.058Z,716.91
2016-04-11T13:50:40.074Z,716.88
2016-04-11T13:50:54.043Z,716.84
2016-04-11T13:51:08.074Z,716.81
2016-04-11T13:51:36.561Z,716.84
2016-04-11T13:52:04.624Z,716.96
2016-04-11T13:52:18.862Z,716.99
2016-04-11T13:52:32.550Z,716.92
2016-04-11T13:52:46.675Z,716.92
2016-04-11T13:53:00.550Z,716.91
2016-04-11T13:53:14.456Z,716.99
2016-04-11T13:53:27.896Z,716.99
2016-04-11T13:53:42.068Z,717.09
2016-04-11T13:53:56.334Z,717.21
2016-04-11T13:54:10.381Z,717.31
2016-04-11T13:54:24.322Z,717.34
2016-04-11T13:54:38.525Z,717.28
2016-04-11T13:55:23.888Z,716.86
2016-04-11T13:55:37.794Z,716.81
2016-04-11T13:55:51.669Z,716.83
2016-04-11T13:56:05.747Z,716.77
2016-04-11T13:56:22.656Z,716.9
2016-04-11T13:56:36.438Z,716.89
2016-04-11T13:56:50.188Z,716.97
2016-04-11T13:57:04.031Z,716.99
2016-04-11T13:57:17.987Z,717.11
2016-04-11T13:57:31.862Z,717.3
2016-04-11T13:57:46.081Z,717.16
2016-04-11T13:57:59.987Z,717.01
2016-04-11T13:58:13.878Z,717.03
2016-04-11T13:58:27.803Z,717.07
2016-04-11T13:58:41.850Z,717.16
2016-04-11T13:58:55.569Z,717.1